Tohatchi, New Mexico
Current Conditions -  °F | °C
As of 4:53 AM on Monday 24 Nov 2014 (Local Time) from KGUP Reporting Station
Clear Clear  
Wind Chill:   Ceiling: Unl
Heat Index:   Visibility: 10mi
Dew Point: -3°   Wind: 0mph
Humidity: 59%   Direction: NA
Pressure: 30.17"   Gusts: NA
Location:  35.86°N, 108.79°W
Report Text: KGUP 241153Z AUTO 00000KT 10SM CLR M13/M19 A3017 RMK AO2 SLP275 T11281194 11072 21139 53000
Loading
Personal Weather Stations






























Interactive Weather Map New forecast layout! Learn more

10-Day Weather Forecast

Advertisements
Track Severe Weather on mobile